createdAt,value
2017-06-26T00:02:13.935Z,74.00
2017-06-26T00:04:41.375Z,74.30
2017-06-26T00:07:10.163Z,74.60
2017-06-26T00:09:38.364Z,74.40
2017-06-26T00:12:06.156Z,74.20
2017-06-26T00:14:34.003Z,74.40
2017-06-26T00:17:02.388Z,74.40
2017-06-26T00:19:29.835Z,74.60
2017-06-26T00:21:57.283Z,74.90
2017-06-26T00:24:24.727Z,75.50
2017-06-26T00:26:52.177Z,75.70
2017-06-26T00:29:19.623Z,75.80
2017-06-26T00:31:47.090Z,75.70
2017-06-26T00:34:15.294Z,75.20
2017-06-26T00:36:42.734Z,75.20
2017-06-26T00:39:10.187Z,75.20
2017-06-26T00:41:37.628Z,75.20
2017-06-26T00:44:05.847Z,75.60
2017-06-26T00:46:33.286Z,75.50
2017-06-26T00:49:00.730Z,75.50
2017-06-26T00:51:28.166Z,75.60
2017-06-26T00:53:56.399Z,76.80
2017-06-26T00:56:23.840Z,76.10
2017-06-26T00:58:51.279Z,76.10
2017-06-26T01:01:18.723Z,75.90
2017-06-26T01:03:46.162Z,76.00
2017-06-26T01:06:13.615Z,76.00
2017-06-26T01:08:41.058Z,75.90
2017-06-26T01:11:08.499Z,75.90
2017-06-26T01:16:33.582Z,76.20
2017-06-26T01:19:01.030Z,76.30
2017-06-26T01:21:29.242Z,76.00
2017-06-26T01:23:56.678Z,75.90
2017-06-26T01:26:24.131Z,76.10
2017-06-26T01:28:51.571Z,76.20
2017-06-26T01:31:19.017Z,75.70
2017-06-26T01:33:46.470Z,76.00
2017-06-26T01:36:15.886Z,76.20
2017-06-26T01:38:44.511Z,76.40
2017-06-26T01:41:11.950Z,77.10
2017-06-26T01:43:40.182Z,76.20
2017-06-26T01:46:07.699Z,76.00
2017-06-26T01:48:36.114Z,75.90
2017-06-26T01:51:03.632Z,75.70
2017-06-26T01:53:31.086Z,75.80
2017-06-26T01:55:58.530Z,75.70
2017-06-26T01:58:25.954Z,75.80
2017-06-26T02:00:54.247Z,76.00
2017-06-26T02:03:21.692Z,75.50
2017-06-26T02:05:49.907Z,76.50
2017-06-26T02:08:17.346Z,76.50
2017-06-26T02:10:45.726Z,76.40
2017-06-26T02:13:13.163Z,76.50
2017-06-26T02:15:42.003Z,76.80
2017-06-26T02:18:10.877Z,76.80
2017-06-26T02:20:38.306Z,76.80
2017-06-26T02:23:05.734Z,76.50
2017-06-26T02:25:33.211Z,76.60
2017-06-26T02:28:01.410Z,76.80
2017-06-26T02:30:29.650Z,76.60
2017-06-26T02:32:57.094Z,76.90
2017-06-26T02:35:24.539Z,76.60
2017-06-26T02:37:51.986Z,77.00
2017-06-26T02:40:20.059Z,77.00
2017-06-26T02:42:47.507Z,76.90
2017-06-26T02:45:14.955Z,77.20
2017-06-26T02:47:42.411Z,77.30
2017-06-26T02:50:10.575Z,77.30
2017-06-26T02:52:38.022Z,77.30
2017-06-26T02:55:05.465Z,77.10
2017-06-26T02:57:32.926Z,77.20
2017-06-26T03:00:00.367Z,76.80
2017-06-26T03:02:27.802Z,77.00
2017-06-26T03:04:55.253Z,77.10
2017-06-26T03:07:22.683Z,77.40
2017-06-26T03:09:50.128Z,77.40
2017-06-26T03:12:17.574Z,77.10
2017-06-26T03:14:45.026Z,77.30
2017-06-26T03:17:12.455Z,77.00
2017-06-26T03:19:40.314Z,77.00
2017-06-26T03:22:07.750Z,77.60
2017-06-26T03:24:35.198Z,77.90
2017-06-26T03:27:02.631Z,77.90
2017-06-26T03:29:30.100Z,78.00
2017-06-26T03:31:57.536Z,77.70
2017-06-26T03:34:24.982Z,78.00
2017-06-26T03:36:53.187Z,78.30
2017-06-26T03:39:21.554Z,78.20
2017-06-26T03:41:48.995Z,78.70
2017-06-26T03:44:17.466Z,78.60
2017-06-26T03:46:44.911Z,79.00
2017-06-26T03:49:12.370Z,78.80
2017-06-26T03:51:39.791Z,78.60
2017-06-26T03:54:07.229Z,78.80
2017-06-26T03:56:34.678Z,78.90
2017-06-26T03:59:02.114Z,78.50
2017-06-26T04:01:29.554Z,78.50
2017-06-26T04:03:57.774Z,78.90
2017-06-26T04:06:25.230Z,78.70
2017-06-26T04:08:52.675Z,78.70
2017-06-26T04:11:20.126Z,78.60
2017-06-26T04:13:47.939Z,78.90
2017-06-26T04:16:15.866Z,78.90
2017-06-26T04:18:43.734Z,78.70
2017-06-26T04:21:11.175Z,78.10
2017-06-26T04:23:38.627Z,78.00
2017-06-26T04:26:06.848Z,76.80
2017-06-26T04:28:35.288Z,76.80
2017-06-26T04:31:02.739Z,77.00
2017-06-26T04:33:30.208Z,76.60
2017-06-26T04:35:57.642Z,75.90
2017-06-26T04:38:25.514Z,75.60
2017-06-26T04:40:52.955Z,76.50
2017-06-26T04:43:20.415Z,77.00
2017-06-26T04:45:48.627Z,77.90
2017-06-26T04:48:16.483Z,78.20
2017-06-26T04:50:45.874Z,77.90
2017-06-26T04:53:13.313Z,78.10
2017-06-26T04:55:40.791Z,77.80
2017-06-26T04:58:08.979Z,78.10
2017-06-26T05:00:36.411Z,78.10
2017-06-26T05:03:03.908Z,77.50
2017-06-26T05:05:31.349Z,77.00
2017-06-26T05:07:58.785Z,77.50
2017-06-26T05:10:27.007Z,77.30
2017-06-26T05:12:54.455Z,77.20
2017-06-26T05:15:21.908Z,77.90
2017-06-26T05:17:50.019Z,77.90
2017-06-26T05:20:18.067Z,77.80
2017-06-26T05:22:46.514Z,78.00
2017-06-26T05:25:13.946Z,78.30
2017-06-26T05:27:41.402Z,78.10
2017-06-26T05:30:09.751Z,77.90
2017-06-26T05:32:37.199Z,77.80
2017-06-26T05:35:04.636Z,76.80
2017-06-26T05:37:32.095Z,76.60
2017-06-26T05:39:59.529Z,76.20
2017-06-26T05:42:26.959Z,75.20
2017-06-26T05:44:54.410Z,73.00
2017-06-26T05:47:22.668Z,72.10
2017-06-26T05:49:55.770Z,71.40
2017-06-26T05:52:23.210Z,69.10
2017-06-26T05:54:51.179Z,68.40
2017-06-26T05:57:18.618Z,68.20
2017-06-26T05:59:46.169Z,68.20
2017-06-26T06:02:13.606Z,69.10
2017-06-26T06:04:41.050Z,68.80
2017-06-26T06:07:09.286Z,67.90
2017-06-26T06:09:36.743Z,67.30
2017-06-26T06:12:04.183Z,65.00
2017-06-26T06:14:31.628Z,63.80
2017-06-26T06:16:59.070Z,62.20
2017-06-26T06:19:26.516Z,61.00
2017-06-26T06:21:53.968Z,63.20
2017-06-26T06:24:22.582Z,64.80
2017-06-26T06:26:50.027Z,64.70
2017-06-26T06:29:17.462Z,63.00
2017-06-26T06:31:44.916Z,63.00
2017-06-26T06:34:13.126Z,61.80
2017-06-26T06:36:40.590Z,61.80
2017-06-26T06:39:08.809Z,61.50
2017-06-26T06:41:37.028Z,59.40
2017-06-26T06:44:05.355Z,59.40
2017-06-26T06:46:33.437Z,59.30
2017-06-26T06:49:00.869Z,59.30
2017-06-26T06:51:28.636Z,59.30
2017-06-26T06:53:56.074Z,58.30
2017-06-26T06:56:23.516Z,56.80
2017-06-26T06:58:50.972Z,55.40
2017-06-26T07:01:18.394Z,54.40
2017-06-26T07:03:46.606Z,53.90
2017-06-26T07:06:17.086Z,53.80
2017-06-26T07:08:45.314Z,54.00
2017-06-26T07:11:12.754Z,54.00
2017-06-26T07:13:40.187Z,55.20
2017-06-26T07:16:07.648Z,56.40
2017-06-26T07:18:37.071Z,55.20
2017-06-26T07:21:04.946Z,55.10
2017-06-26T07:23:34.562Z,54.20
2017-06-26T07:26:01.992Z,53.40
2017-06-26T07:28:29.426Z,52.00
2017-06-26T07:30:57.642Z,50.20
2017-06-26T07:33:25.079Z,50.10
2017-06-26T07:35:52.539Z,49.20
2017-06-26T07:38:19.978Z,48.20
2017-06-26T07:40:48.206Z,49.40
2017-06-26T07:43:15.642Z,49.40
2017-06-26T07:45:43.078Z,51.10
2017-06-26T07:48:10.528Z,52.00
2017-06-26T07:50:38.340Z,52.50
2017-06-26T07:53:05.799Z,50.80
2017-06-26T07:55:33.248Z,49.10
2017-06-26T07:58:00.694Z,48.50
2017-06-26T08:00:28.139Z,48.30
2017-06-26T08:02:55.591Z,49.20
2017-06-26T08:05:23.042Z,51.20
2017-06-26T08:07:50.474Z,52.30
2017-06-26T08:10:18.918Z,51.90
2017-06-26T08:12:46.723Z,51.90
2017-06-26T08:15:16.039Z,50.00
2017-06-26T08:17:45.671Z,50.60
2017-06-26T08:20:13.118Z,50.60
2017-06-26T08:22:40.557Z,50.30
2017-06-26T08:25:08.574Z,50.40
2017-06-26T08:27:36.022Z,49.30
2017-06-26T08:30:03.480Z,47.70
2017-06-26T08:32:30.910Z,46.30
2017-06-26T08:34:58.346Z,44.00
2017-06-26T08:37:27.702Z,42.90
2017-06-26T08:39:55.147Z,42.90
2017-06-26T08:42:24.602Z,41.80
2017-06-26T08:44:52.809Z,41.90
2017-06-26T08:47:20.263Z,41.90
2017-06-26T08:49:49.203Z,41.50
2017-06-26T08:52:16.659Z,41.20
2017-06-26T08:54:44.087Z,39.80
2017-06-26T08:57:11.544Z,37.80
2017-06-26T08:59:39.795Z,39.10
2017-06-26T09:02:07.239Z,39.70
2017-06-26T09:04:34.678Z,40.60
2017-06-26T09:07:02.903Z,39.80
2017-06-26T09:09:30.339Z,39.70
2017-06-26T09:11:58.794Z,39.30
2017-06-26T09:14:27.011Z,40.00
2017-06-26T09:16:54.450Z,40.00
2017-06-26T09:19:22.894Z,40.80
2017-06-26T09:21:50.327Z,41.40
2017-06-26T09:24:17.779Z,40.60
2017-06-26T09:26:45.321Z,38.30
2017-06-26T09:29:12.747Z,38.60
2017-06-26T09:31:40.704Z,39.80
2017-06-26T09:34:08.935Z,41.90
2017-06-26T09:36:36.378Z,41.80
2017-06-26T09:39:03.828Z,41.70
2017-06-26T09:41:31.275Z,41.50
2017-06-26T09:43:58.714Z,41.50
2017-06-26T09:46:26.926Z,41.50
2017-06-26T09:48:54.366Z,41.40
2017-06-26T09:51:21.818Z,42.40
2017-06-26T09:53:49.255Z,43.20
2017-06-26T09:56:17.466Z,43.30
2017-06-26T09:58:44.907Z,43.30
2017-06-26T10:01:12.355Z,43.30
2017-06-26T10:03:39.798Z,43.50
2017-06-26T10:06:08.039Z,41.60
2017-06-26T10:08:36.030Z,41.60
2017-06-26T10:11:04.242Z,42.10
2017-06-26T10:13:31.694Z,42.00
2017-06-26T10:15:59.127Z,41.50
2017-06-26T10:18:27.350Z,41.10
2017-06-26T10:20:54.783Z,41.10
2017-06-26T10:23:22.237Z,38.90
2017-06-26T10:25:49.684Z,38.70
2017-06-26T10:28:17.896Z,38.10
2017-06-26T10:30:45.330Z,38.10
2017-06-26T10:33:13.467Z,38.20
2017-06-26T10:35:40.903Z,37.00
2017-06-26T10:38:08.347Z,37.30
2017-06-26T10:40:35.787Z,37.80
2017-06-26T10:43:03.220Z,38.50
2017-06-26T10:45:30.666Z,38.80
2017-06-26T10:47:58.106Z,40.00
2017-06-26T10:50:26.324Z,38.60
2017-06-26T10:52:53.766Z,38.50
2017-06-26T10:55:21.226Z,37.50
2017-06-26T10:57:48.654Z,37.20
2017-06-26T11:00:17.235Z,38.30
2017-06-26T11:02:45.439Z,37.90
2017-06-26T11:05:12.899Z,37.80
2017-06-26T11:07:41.039Z,38.30
2017-06-26T11:10:09.263Z,38.10
2017-06-26T11:12:37.527Z,38.00
2017-06-26T11:15:04.975Z,37.40
2017-06-26T11:17:32.434Z,36.10
2017-06-26T11:19:59.866Z,36.50
2017-06-26T11:22:29.014Z,37.30
2017-06-26T11:24:56.457Z,37.20
2017-06-26T11:27:23.911Z,37.00
2017-06-26T11:29:51.353Z,36.60
2017-06-26T11:32:18.802Z,36.20
2017-06-26T11:34:46.238Z,36.20
2017-06-26T11:37:14.465Z,37.00
2017-06-26T11:39:41.902Z,37.00
2017-06-26T11:42:09.358Z,36.80
2017-06-26T11:44:36.802Z,37.10
2017-06-26T11:47:04.287Z,36.40
2017-06-26T11:49:31.719Z,37.80
2017-06-26T11:51:59.158Z,39.30
2017-06-26T11:54:27.368Z,39.80
2017-06-26T11:56:54.810Z,39.70
2017-06-26T11:59:22.262Z,38.50
2017-06-26T12:01:49.698Z,38.80
2017-06-26T12:04:17.147Z,40.30
2017-06-26T12:06:44.604Z,39.30
2017-06-26T12:09:13.206Z,39.40
2017-06-26T12:11:42.623Z,39.30
2017-06-26T12:14:10.055Z,39.30
2017-06-26T12:16:38.279Z,40.40
2017-06-26T12:19:06.255Z,40.40
2017-06-26T12:21:33.707Z,39.00
2017-06-26T12:24:01.715Z,39.00
2017-06-26T12:26:29.163Z,38.80
2017-06-26T12:28:56.610Z,39.40
2017-06-26T12:31:24.063Z,38.20
2017-06-26T12:33:51.503Z,38.40
2017-06-26T12:36:18.963Z,37.70
2017-06-26T12:38:46.954Z,37.60
2017-06-26T12:41:14.419Z,37.10
2017-06-26T12:43:41.858Z,38.00
2017-06-26T12:46:09.323Z,38.30
2017-06-26T12:48:36.759Z,39.40
2017-06-26T12:51:04.204Z,40.00
2017-06-26T12:53:31.654Z,39.20
2017-06-26T12:55:59.097Z,38.20
2017-06-26T12:58:27.311Z,38.60
2017-06-26T13:00:54.742Z,38.60
2017-06-26T13:03:22.202Z,38.50
2017-06-26T13:05:49.644Z,38.60
2017-06-26T13:08:17.118Z,37.40
2017-06-26T13:10:44.558Z,37.30
2017-06-26T13:13:12.016Z,37.60
2017-06-26T13:15:39.466Z,37.00
2017-06-26T13:18:06.923Z,36.30
2017-06-26T13:20:35.130Z,35.30
2017-06-26T13:23:02.591Z,35.30
2017-06-26T13:25:30.023Z,35.10
2017-06-26T13:27:57.467Z,34.60
2017-06-26T13:30:25.674Z,33.80
2017-06-26T13:32:53.128Z,33.70
2017-06-26T13:35:21.452Z,34.80
2017-06-26T13:37:48.891Z,35.40
2017-06-26T13:40:16.339Z,34.40
2017-06-26T13:42:43.778Z,33.80
2017-06-26T13:45:11.234Z,32.90
2017-06-26T13:47:39.514Z,33.10
2017-06-26T13:50:06.959Z,33.40
2017-06-26T13:52:34.401Z,34.20
2017-06-26T13:55:01.839Z,35.00
2017-06-26T13:57:30.058Z,36.00
2017-06-26T13:59:57.499Z,35.90
2017-06-26T14:02:24.950Z,36.30
2017-06-26T14:04:53.206Z,36.70
2017-06-26T14:07:21.422Z,37.90
2017-06-26T14:09:48.858Z,37.80
2017-06-26T14:12:36.634Z,37.90
2017-06-26T14:15:14.747Z,37.70
2017-06-26T14:17:42.198Z,36.90
2017-06-26T14:20:09.638Z,35.80
2017-06-26T14:22:37.624Z,36.20
2017-06-26T14:25:05.159Z,35.00
2017-06-26T14:27:32.615Z,35.60
2017-06-26T14:30:01.819Z,35.50
2017-06-26T14:32:29.255Z,35.10
2017-06-26T14:34:56.710Z,34.40
2017-06-26T14:37:24.718Z,35.80
2017-06-26T14:39:52.170Z,35.00
2017-06-26T14:42:19.609Z,34.90
2017-06-26T14:44:47.079Z,33.90
2017-06-26T14:47:14.524Z,34.00
2017-06-26T14:49:41.979Z,35.80
2017-06-26T14:52:09.426Z,37.30
2017-06-26T14:54:36.875Z,37.10
2017-06-26T14:57:04.767Z,37.00
2017-06-26T14:59:32.219Z,35.20
2017-06-26T15:01:59.660Z,34.70
2017-06-26T15:04:27.599Z,34.30
2017-06-26T15:06:56.206Z,34.20
2017-06-26T15:09:23.662Z,35.60
2017-06-26T15:11:51.111Z,34.70
2017-06-26T15:14:19.344Z,35.20
2017-06-26T15:16:46.784Z,35.10
2017-06-26T15:19:14.219Z,35.10
2017-06-26T15:21:41.671Z,34.10
2017-06-26T15:24:09.118Z,34.80
2017-06-26T15:26:36.559Z,35.20
2017-06-26T15:29:05.982Z,34.90
2017-06-26T15:31:33.435Z,34.80
2017-06-26T15:34:01.323Z,34.70
2017-06-26T15:36:28.785Z,34.50
2017-06-26T15:38:56.222Z,34.00
2017-06-26T15:41:23.683Z,34.00
2017-06-26T15:43:51.115Z,35.20
2017-06-26T15:46:19.334Z,34.30
2017-06-26T15:48:47.466Z,34.30
2017-06-26T15:51:14.902Z,33.90
2017-06-26T15:53:43.124Z,35.80
2017-06-26T15:56:11.295Z,35.80
2017-06-26T15:58:38.743Z,35.60
2017-06-26T16:01:06.183Z,35.90
2017-06-26T16:03:34.501Z,35.30
2017-06-26T16:06:01.923Z,35.20
2017-06-26T16:08:29.746Z,36.00
2017-06-26T16:10:57.187Z,36.50
2017-06-26T16:13:24.631Z,37.60
2017-06-26T16:15:52.085Z,37.90
2017-06-26T16:18:20.311Z,37.60
2017-06-26T16:20:48.515Z,37.80
2017-06-26T16:23:15.967Z,37.80
2017-06-26T16:25:43.450Z,38.30
2017-06-26T16:28:10.870Z,37.20
2017-06-26T16:30:39.094Z,37.30
2017-06-26T16:33:07.358Z,37.30
2017-06-26T16:38:09.630Z,38.80
2017-06-26T16:40:37.083Z,38.70
2017-06-26T16:43:05.160Z,38.10
2017-06-26T16:45:32.628Z,38.00
2017-06-26T16:48:00.071Z,38.30
2017-06-26T16:50:27.529Z,39.80
2017-06-26T16:52:54.962Z,43.40
2017-06-26T16:55:23.171Z,45.50
2017-06-26T16:57:50.634Z,45.50
2017-06-26T17:00:18.071Z,45.70
2017-06-26T17:02:45.527Z,45.90
2017-06-26T17:05:12.978Z,46.20
2017-06-26T17:07:40.426Z,47.40
2017-06-26T17:10:07.868Z,47.60
2017-06-26T17:12:40.826Z,47.60
2017-06-26T17:15:08.276Z,47.50
2017-06-26T17:17:36.490Z,47.90
2017-06-26T17:20:04.704Z,47.40
2017-06-26T17:22:32.512Z,47.20
2017-06-26T17:24:59.966Z,47.20
2017-06-26T17:27:27.415Z,47.10
2017-06-26T17:29:54.862Z,47.10
2017-06-26T17:32:23.123Z,47.80
2017-06-26T17:34:50.587Z,47.80
2017-06-26T17:37:18.030Z,48.30
2017-06-26T17:39:45.476Z,48.50
2017-06-26T17:42:12.914Z,48.80
2017-06-26T17:44:40.390Z,48.40
2017-06-26T17:47:07.826Z,48.60
2017-06-26T17:49:36.182Z,49.40
2017-06-26T17:52:05.179Z,50.00
2017-06-26T17:54:33.379Z,50.40
2017-06-26T17:57:00.839Z,50.80
2017-06-26T17:59:28.279Z,51.30
2017-06-26T18:01:56.498Z,52.10
2017-06-26T18:04:23.948Z,52.00
2017-06-26T18:06:51.767Z,51.90
2017-06-26T18:09:19.207Z,52.30
2017-06-26T18:29:08.130Z,54.60
2017-06-26T18:31:35.570Z,54.10
2017-06-26T18:34:03.018Z,53.70
2017-06-26T18:36:31.225Z,53.10
2017-06-26T18:38:59.559Z,53.00
2017-06-26T18:41:26.994Z,53.40
2017-06-26T18:43:54.434Z,53.30
2017-06-26T18:46:21.883Z,53.50
2017-06-26T18:48:50.143Z,54.00
2017-06-26T18:51:17.609Z,55.20
2017-06-26T18:53:45.046Z,56.60
2017-06-26T18:56:12.494Z,57.90
2017-06-26T18:58:41.526Z,58.80
2017-06-26T19:01:09.315Z,58.80
2017-06-26T19:03:36.763Z,59.60
2017-06-26T19:06:04.212Z,59.80
2017-06-26T19:08:32.496Z,60.40
2017-06-26T19:11:00.644Z,61.20
2017-06-26T19:13:28.078Z,62.10
2017-06-26T19:15:55.510Z,62.00
2017-06-26T19:18:23.751Z,63.00
2017-06-26T19:20:51.196Z,62.80
2017-06-26T19:23:18.647Z,63.40
2017-06-26T19:25:46.082Z,64.20
2017-06-26T19:28:13.662Z,65.30
2017-06-26T19:30:41.120Z,66.30
2017-06-26T19:33:09.711Z,66.60
2017-06-26T19:35:37.162Z,66.50
2017-06-26T19:38:04.628Z,66.80
2017-06-26T19:40:32.079Z,66.80
2017-06-26T19:42:59.519Z,66.50
2017-06-26T19:45:26.967Z,66.80
2017-06-26T19:47:55.539Z,66.90
2017-06-26T19:50:22.983Z,67.50
2017-06-26T19:52:51.187Z,68.50
2017-06-26T19:55:18.634Z,68.40
2017-06-26T19:57:46.728Z,69.00
2017-06-26T20:00:14.771Z,69.50
2017-06-26T20:02:42.858Z,69.60
2017-06-26T20:05:12.438Z,69.10
2017-06-26T20:07:40.648Z,69.30
2017-06-26T20:10:08.084Z,69.20
2017-06-26T20:12:35.537Z,69.30
2017-06-26T20:15:02.976Z,69.20
2017-06-26T20:17:31.198Z,69.30
2017-06-26T20:19:58.634Z,69.30
2017-06-26T20:22:26.082Z,69.50
2017-06-26T20:24:53.530Z,70.30
2017-06-26T20:27:22.534Z,70.80
2017-06-26T20:29:49.982Z,70.70
2017-06-26T20:32:18.210Z,72.00
2017-06-26T20:34:46.059Z,71.90
2017-06-26T20:37:13.476Z,72.50
2017-06-26T20:39:41.702Z,73.20
2017-06-26T20:42:09.145Z,73.10
2017-06-26T20:44:37.434Z,72.80
2017-06-26T20:47:04.879Z,73.40
2017-06-26T20:49:32.336Z,74.10
2017-06-26T20:51:59.782Z,74.20
2017-06-26T20:54:27.235Z,74.50
2017-06-26T20:56:54.707Z,74.80
2017-06-26T20:59:23.118Z,74.80
2017-06-26T21:01:50.564Z,75.60
2017-06-26T21:04:18.024Z,76.60
2017-06-26T21:06:46.451Z,76.80
2017-06-26T21:09:13.894Z,76.90
2017-06-26T21:11:42.114Z,77.30
2017-06-26T21:14:09.554Z,77.10
2017-06-26T21:16:37.127Z,78.00
2017-06-26T21:19:04.567Z,79.40
2017-06-26T21:21:33.523Z,80.30
2017-06-26T21:24:00.966Z,80.50
2017-06-26T21:26:28.411Z,80.30
2017-06-26T21:28:55.850Z,79.90
2017-06-26T21:31:23.307Z,80.10
2017-06-26T21:33:50.738Z,80.60
2017-06-26T21:36:18.226Z,80.80
2017-06-26T21:38:45.671Z,81.30
2017-06-26T21:41:13.799Z,81.50
2017-06-26T21:43:41.250Z,81.10
2017-06-26T21:46:08.690Z,81.30
2017-06-26T21:48:36.151Z,81.90
2017-06-26T21:51:03.594Z,82.10
2017-06-26T21:53:31.042Z,82.70
2017-06-26T21:55:58.487Z,82.90
2017-06-26T21:58:25.956Z,82.50
2017-06-26T22:00:53.398Z,82.10
2017-06-26T22:03:20.863Z,81.80
2017-06-26T22:05:48.310Z,81.60
2017-06-26T22:08:32.782Z,82.50
2017-06-26T22:11:00.242Z,83.90
2017-06-26T22:13:28.142Z,84.10
2017-06-26T22:15:56.364Z,84.70
2017-06-26T22:18:23.808Z,84.00
2017-06-26T22:20:51.273Z,83.40
2017-06-26T22:23:18.719Z,83.60
2017-06-26T22:25:46.171Z,84.60
2017-06-26T22:28:13.621Z,84.60
2017-06-26T22:30:41.838Z,83.30
2017-06-26T22:33:09.283Z,83.30
2017-06-26T22:35:36.736Z,83.60
2017-06-26T22:38:04.186Z,83.30
2017-06-26T22:40:31.635Z,83.20
2017-06-26T22:42:59.084Z,82.90
2017-06-26T22:45:26.539Z,82.90
2017-06-26T22:47:54.754Z,83.10
2017-06-26T22:50:22.215Z,83.10
2017-06-26T22:52:49.669Z,83.70
2017-06-26T22:55:17.126Z,85.00
2017-06-26T22:57:44.572Z,85.80
2017-06-26T23:00:12.022Z,86.70
2017-06-26T23:02:39.475Z,85.80
2017-06-26T23:05:06.931Z,85.40
2017-06-26T23:07:51.001Z,85.40
2017-06-26T23:10:19.095Z,85.70
2017-06-26T23:12:46.555Z,85.70
2017-06-26T23:15:14.018Z,85.30
2017-06-26T23:17:43.155Z,85.00
2017-06-26T23:20:11.422Z,85.10
2017-06-26T23:22:39.643Z,87.40
2017-06-26T23:25:07.096Z,87.30
2017-06-26T23:27:34.586Z,87.00
2017-06-26T23:30:02.042Z,87.00
2017-06-26T23:32:29.487Z,85.90
2017-06-26T23:34:56.946Z,86.20
2017-06-26T23:37:24.388Z,86.30
2017-06-26T23:39:51.848Z,86.10
2017-06-26T23:42:19.302Z,86.30
2017-06-26T23:44:47.785Z,86.10
2017-06-26T23:47:15.232Z,85.90
2017-06-26T23:49:43.629Z,85.60
2017-06-26T23:52:11.307Z,85.60
2017-06-26T23:54:38.760Z,86.20
2017-06-26T23:59:40.250Z,86.30
